Time;durP1;ratioP1;P1;durP2;ratioP2;P2;SDS_P1;SDS_P2;PMS_P1;PMS_P2;Temp;Humidity;BMP_temperature;BMP_pressure;BME280_temperature;BME280_humidity;BME280_pressure;Samples;Min_cycle;Max_cycle;Signal;HPM_P1;HPM_P2
2023/12/11 00:01:32;;;;;;;29.00;13.60;;;;;;;-147.86;100.00;46117.09;105820;1254;72463;-42
2023/12/11 00:03:59;;;;;;;27.90;12.90;;;;;;;-147.86;100.00;46114.74;105903;1258;60536;-43
2023/12/11 00:06:26;;;;;;;26.20;13.40;;;;;;;-147.86;100.00;46117.48;105854;1254;60405;-39
2023/12/11 00:08:53;;;;;;;38.80;12.50;;;;;;;-147.86;100.00;46117.48;105846;1258;73694;-41
2023/12/11 00:11:22;;;;;;;24.60;12.20;;;;;;;-147.86;100.00;46116.30;105860;1257;65425;-45
2023/12/11 00:13:49;;;;;;;26.00;13.70;;;;;;;-147.86;100.00;46115.92;105914;1254;72638;-40
2023/12/11 00:16:19;;;;;;;27.90;12.10;;;;;;;-147.86;100.00;46116.70;105835;1257;60556;-44
2023/12/11 00:18:48;;;;;;;27.30;12.20;;;;;;;-147.86;100.00;46115.13;105856;1254;60450;-43
2023/12/11 00:21:16;;;;;;;23.40;12.30;;;;;;;-147.86;100.00;46115.52;105878;1257;73698;-44
2023/12/11 00:23:43;;;;;;;26.30;13.10;;;;;;;-147.86;100.00;46116.70;105909;1257;65473;-43
2023/12/11 00:26:10;;;;;;;25.20;11.90;;;;;;;-147.86;100.00;46115.52;105853;1254;72516;-43
2023/12/11 00:28:38;;;;;;;25.20;12.60;;;;;;;-147.86;100.00;46116.30;105847;1258;60428;-43
2023/12/11 00:31:07;;;;;;;26.10;13.20;;;;;;;-147.86;100.00;46117.09;105870;1257;60465;-44
2023/12/11 00:33:37;;;;;;;25.80;13.70;;;;;;;-147.86;100.00;46117.88;105843;1255;73740;-45
2023/12/11 00:36:04;;;;;;;27.00;13.90;;;;;;;-147.86;100.00;46114.74;105849;1257;65439;-42
2023/12/11 00:38:31;;;;;;;33.50;13.90;;;;;;;-147.86;100.00;46117.88;105880;1254;72659;-43
2023/12/11 00:40:58;;;;;;;30.20;14.10;;;;;;;-147.86;100.00;46115.91;105932;1257;61131;-42
2023/12/11 00:43:25;;;;;;;26.00;13.70;;;;;;;-147.86;100.00;46118.27;105861;1254;60530;-43
2023/12/11 00:45:52;;;;;;;28.70;13.50;;;;;;;-147.86;100.00;46114.74;105788;1257;73801;-45
2023/12/11 00:48:19;;;;;;;28.50;13.50;;;;;;;-147.86;100.00;46116.70;105814;1257;65352;-40
2023/12/11 00:50:46;;;;;;;40.60;15.30;;;;;;;-147.86;100.00;46117.87;105830;1254;72633;-42
2023/12/11 00:53:13;;;;;;;31.90;13.90;;;;;;;-147.86;100.00;46114.35;105848;1257;61026;-41
2023/12/11 00:55:40;;;;;;;29.50;14.00;;;;;;;-147.86;100.00;46117.87;105911;1254;60536;-42
2023/12/11 00:58:06;;;;;;;32.60;15.20;;;;;;;-147.86;100.00;46116.30;105846;1254;73870;-44
2023/12/11 01:00:33;;;;;;;26.60;13.10;;;;;;;-147.86;100.00;46115.13;105862;1257;65343;-42
2023/12/11 01:03:02;;;;;;;43.50;16.20;;;;;;;-147.86;100.00;46115.91;105859;1254;72612;-45
2023/12/11 01:05:30;;;;;;;31.10;13.80;;;;;;;-147.86;100.00;46117.09;105835;1257;61254;-44
2023/12/11 01:07:57;;;;;;;30.70;14.50;;;;;;;-147.86;100.00;46117.88;105833;1254;61024;-45
2023/12/11 01:10:24;;;;;;;32.00;14.60;;;;;;;-147.86;100.00;46115.91;105831;1257;73804;-41
2023/12/11 01:12:51;;;;;;;35.80;15.40;;;;;;;-147.86;100.00;46117.48;105836;1257;65261;-41
2023/12/11 01:15:18;;;;;;;35.40;17.10;;;;;;;-147.86;100.00;46115.91;105850;1257;72643;-43
2023/12/11 01:17:45;;;;;;;29.50;15.00;;;;;;;-147.86;100.00;46116.70;105865;1254;61234;-44
2023/12/11 01:20:12;;;;;;;33.30;15.20;;;;;;;-147.86;100.00;46115.52;105867;1254;60534;-43
2023/12/11 01:22:39;;;;;;;39.80;13.40;;;;;;;-147.86;100.00;46117.09;105689;1254;73885;-45
2023/12/11 01:25:08;;;;;;;37.00;14.10;;;;;;;-147.86;100.00;46117.09;105831;1257;65564;-41
2023/12/11 01:27:36;;;;;;;37.90;14.70;;;;;;;-147.86;100.00;46116.70;105828;1254;72740;-46
2023/12/11 01:30:03;;;;;;;32.00;14.30;;;;;;;-147.86;100.00;46115.52;105835;1257;61059;-42
2023/12/11 01:32:31;;;;;;;39.40;14.30;;;;;;;-147.86;100.00;46114.74;105863;1255;60428;-42
2023/12/11 01:34:57;;;;;;;30.90;14.50;;;;;;;-147.86;100.00;46119.05;105918;1254;73706;-47
2023/12/11 01:37:24;;;;;;;29.90;14.20;;;;;;;-147.86;100.00;46115.91;105866;1257;65432;-45
2023/12/11 01:39:51;;;;;;;32.40;14.40;;;;;;;-147.86;100.00;46117.09;105881;1254;72651;-48
2023/12/11 01:42:18;;;;;;;34.80;14.00;;;;;;;-147.86;100.00;46116.70;105811;1257;60844;-44
2023/12/11 01:44:45;;;;;;;31.10;13.00;;;;;;;-147.86;100.00;46119.84;105854;1257;60537;-45
2023/12/11 01:47:12;;;;;;;33.50;13.50;;;;;;;-147.86;100.00;46114.34;105812;1257;73798;-42
2023/12/11 01:49:39;;;;;;;30.10;13.10;;;;;;;-147.86;100.00;46117.09;105859;1257;65455;-42
2023/12/11 01:52:07;;;;;;;27.30;12.30;;;;;;;-147.86;100.00;46117.09;105806;1254;72620;-45
2023/12/11 01:54:35;;;;;;;29.40;12.50;;;;;;;-147.86;100.00;46117.48;105764;1254;61391;-42
2023/12/11 01:57:03;;;;;;;20.60;10.40;;;;;;;-147.86;100.00;46116.30;105848;1253;62183;-48
2023/12/11 01:59:30;;;;;;;21.40;10.40;;;;;;;-147.86;100.00;46114.74;105848;1254;73899;-42
2023/12/11 02:01:57;;;;;;;20.80;10.30;;;;;;;-147.86;100.00;46113.56;105857;1256;65540;-45
2023/12/11 02:04:24;;;;;;;16.20;9.20;;;;;;;-147.86;100.00;46115.92;105726;1254;72452;-44
2023/12/11 02:06:51;;;;;;;12.70;7.30;;;;;;;-147.86;100.00;46118.66;105817;1256;61177;-45
2023/12/11 02:09:18;;;;;;;13.70;8.00;;;;;;;-147.86;100.00;46118.66;105869;1257;60498;-46
2023/12/11 02:11:45;;;;;;;13.10;8.00;;;;;;;-147.86;100.00;46116.31;105662;1259;73799;-44
2023/12/11 02:14:13;;;;;;;12.30;7.10;;;;;;;-147.86;100.00;46116.31;105892;1254;63946;-46
2023/12/11 02:16:40;;;;;;;12.30;6.40;;;;;;;-147.86;100.00;46116.30;105827;1254;72629;-46
2023/12/11 02:19:07;;;;;;;11.50;6.90;;;;;;;-147.86;100.00;46113.96;105867;1257;60364;-42
2023/12/11 02:21:34;;;;;;;8.70;5.40;;;;;;;-147.86;100.00;46114.74;105835;1253;60543;-43
2023/12/11 02:24:22;;;;;;;9.10;6.20;;;;;;;-147.86;100.00;46114.74;105723;1254;73832;-41
2023/12/11 02:26:49;;;;;;;9.60;5.80;;;;;;;-147.86;100.00;46116.70;105875;1257;65391;-43
2023/12/11 02:29:15;;;;;;;10.30;6.10;;;;;;;-147.86;100.00;46115.13;105873;1257;72633;-41
2023/12/11 02:31:44;;;;;;;10.10;6.60;;;;;;;-147.86;100.00;46116.31;105862;1257;60379;-42
2023/12/11 02:34:11;;;;;;;11.20;6.20;;;;;;;-147.86;100.00;46115.52;105855;1258;60434;-41
2023/12/11 02:36:38;;;;;;;9.70;6.20;;;;;;;-147.86;100.00;46115.52;105826;1253;73863;-39
2023/12/11 02:39:05;;;;;;;11.00;6.20;;;;;;;-147.86;100.00;46114.74;105957;1257;65395;-44
2023/12/11 02:41:32;;;;;;;8.40;5.80;;;;;;;-147.86;100.00;46117.87;105848;1257;71590;-41
2023/12/11 02:43:59;;;;;;;8.30;6.00;;;;;;;-147.86;100.00;46115.52;105871;1257;60424;-43
2023/12/11 02:46:26;;;;;;;9.00;6.50;;;;;;;-147.86;100.00;46116.70;105840;1254;60530;-43
2023/12/11 02:48:53;;;;;;;10.40;6.70;;;;;;;-147.86;100.00;46115.52;105850;1257;73660;-43
2023/12/11 02:51:21;;;;;;;12.60;6.60;;;;;;;-147.86;100.00;46115.91;105846;1257;65444;-39
2023/12/11 02:53:48;;;;;;;12.50;7.00;;;;;;;-147.86;100.00;46117.48;105860;1253;72565;-43
2023/12/11 02:56:15;;;;;;;12.70;7.20;;;;;;;-147.86;100.00;46114.35;105914;1257;60412;-41
2023/12/11 02:58:44;;;;;;;13.70;8.00;;;;;;;-147.86;100.00;46115.13;105867;1253;60540;-42
2023/12/11 03:01:11;;;;;;;12.00;7.40;;;;;;;-147.86;100.00;46117.88;105799;1253;73803;-43
2023/12/11 03:03:38;;;;;;;13.90;7.70;;;;;;;-147.86;100.00;46116.30;105696;1257;65406;-41
2023/12/11 03:06:06;;;;;;;14.10;7.70;;;;;;;-147.86;100.00;46117.88;105828;1257;72624;-40
2023/12/11 03:08:33;;;;;;;11.30;7.30;;;;;;;-147.86;100.00;46117.88;105909;1257;60834;-42
2023/12/11 03:10:59;;;;;;;12.10;7.20;;;;;;;-147.86;100.00;46115.52;105792;1257;60559;-42
2023/12/11 03:13:26;;;;;;;11.50;7.00;;;;;;;-147.86;100.00;46117.09;105862;1254;73784;-43
2023/12/11 03:15:53;;;;;;;11.80;6.90;;;;;;;-147.86;100.00;46117.87;105860;1254;65365;-44
2023/12/11 03:18:20;;;;;;;10.10;6.60;;;;;;;-147.86;100.00;46117.87;105890;1254;73099;-40
2023/12/11 03:20:47;;;;;;;12.20;7.00;;;;;;;-147.86;100.00;46116.30;105825;1257;61154;-41
2023/12/11 03:23:14;;;;;;;9.70;6.30;;;;;;;-147.86;100.00;46117.09;105880;1254;60675;-45
2023/12/11 03:25:41;;;;;;;9.50;6.30;;;;;;;-147.86;100.00;46118.66;105862;1257;73829;-43
2023/12/11 03:28:08;;;;;;;11.80;6.50;;;;;;;-147.86;100.00;46118.27;105924;1253;65676;-41
2023/12/11 03:30:35;;;;;;;10.90;6.50;;;;;;;-147.86;100.00;46116.70;105807;1254;72621;-42
2023/12/11 03:33:02;;;;;;;11.10;6.20;;;;;;;-147.86;100.00;46116.70;105869;1257;61130;-44
2023/12/11 03:35:29;;;;;;;10.40;6.90;;;;;;;-147.86;100.00;46116.30;105862;1254;60463;-43
2023/12/11 03:37:56;;;;;;;9.70;6.70;;;;;;;-147.86;100.00;46116.70;105887;1257;74004;-41
2023/12/11 03:40:23;;;;;;;11.50;7.40;;;;;;;-147.86;100.00;46118.26;105984;1254;64049;-42
2023/12/11 03:42:50;;;;;;;11.70;7.30;;;;;;;-147.86;100.00;46119.05;105854;1254;72695;-43
2023/12/11 03:45:17;;;;;;;14.70;6.90;;;;;;;-147.86;100.00;46117.48;105835;1254;61139;-45
2023/12/11 03:47:43;;;;;;;13.30;7.60;;;;;;;-147.86;100.00;46118.27;105864;1254;60437;-41
2023/12/11 03:50:11;;;;;;;12.70;8.00;;;;;;;-147.86;100.00;46117.88;105835;1253;73865;-40
2023/12/11 03:52:38;;;;;;;15.10;8.30;;;;;;;-147.86;100.00;46116.70;105893;1257;65377;-45
2023/12/11 03:55:06;;;;;;;13.20;7.90;;;;;;;-147.86;100.00;46115.52;105837;1254;72417;-44
2023/12/11 03:57:33;;;;;;;14.70;8.90;;;;;;;-147.86;100.00;46119.05;105836;1254;60326;-40
2023/12/11 04:00:00;;;;;;;17.10;8.50;;;;;;;-147.86;100.00;46118.66;105843;1254;60440;-44
2023/12/11 04:02:27;;;;;;;13.90;8.10;;;;;;;-147.86;100.00;46116.70;105830;1254;73830;-42
2023/12/11 04:04:54;;;;;;;14.80;9.40;;;;;;;-147.86;100.00;46118.27;105855;1257;65564;-41
2023/12/11 04:07:21;;;;;;;18.50;10.00;;;;;;;-147.86;100.00;46119.44;105889;1254;72701;-40
2023/12/11 04:09:48;;;;;;;16.70;9.30;;;;;;;-147.86;100.00;46117.09;105825;1257;61111;-42
2023/12/11 04:12:15;;;;;;;16.30;9.60;;;;;;;-147.86;100.00;46117.48;105830;1253;60482;-42
2023/12/11 04:14:42;;;;;;;16.50;8.80;;;;;;;-147.86;100.00;46117.88;105781;1257;73857;-41
2023/12/11 04:17:08;;;;;;;20.90;10.10;;;;;;;-147.86;100.00;46119.83;105793;1257;65457;-42
2023/12/11 04:19:35;;;;;;;18.20;9.80;;;;;;;-147.86;100.00;46118.66;105832;1254;72590;-39
2023/12/11 04:22:02;;;;;;;19.50;10.40;;;;;;;-147.86;100.00;46116.30;105877;1257;61189;-41
2023/12/11 04:24:29;;;;;;;17.40;10.40;;;;;;;-147.86;100.00;46117.48;105828;1254;60450;-44
2023/12/11 04:26:56;;;;;;;20.10;10.70;;;;;;;-147.86;100.00;46115.92;105784;1254;73773;-42
2023/12/11 04:29:23;;;;;;;19.10;10.30;;;;;;;-147.86;100.00;46116.30;105780;1254;65381;-39
2023/12/11 04:31:50;;;;;;;19.00;11.00;;;;;;;-147.86;100.00;46113.96;105826;1254;72665;-40
2023/12/11 04:34:17;;;;;;;22.30;11.50;;;;;;;-147.86;100.00;46113.96;105866;1257;61136;-43
2023/12/11 04:36:44;;;;;;;21.50;11.80;;;;;;;-147.86;100.00;46116.31;105841;1253;60447;-43
2023/12/11 04:39:12;;;;;;;22.00;12.10;;;;;;;-147.86;100.00;46117.87;105832;1254;73804;-42
2023/12/11 04:41:39;;;;;;;25.90;13.40;;;;;;;-147.86;100.00;46115.91;105859;1257;65648;-40
2023/12/11 04:44:07;;;;;;;25.00;12.10;;;;;;;-147.86;100.00;46114.74;105845;1254;72517;-42
2023/12/11 04:46:34;;;;;;;23.50;12.00;;;;;;;-147.86;100.00;46115.91;105873;1253;61003;-45
2023/12/11 04:49:01;;;;;;;22.00;12.60;;;;;;;-147.86;100.00;46116.70;105907;1254;60405;-42
2023/12/11 04:51:28;;;;;;;21.50;12.70;;;;;;;-147.86;100.00;46114.35;105862;1254;72886;-43
2023/12/11 04:53:55;;;;;;;28.10;13.70;;;;;;;-147.86;100.00;46115.52;105831;1254;65505;-46
2023/12/11 04:56:24;;;;;;;28.70;14.30;;;;;;;-147.86;100.00;46116.31;105818;1253;72351;-40
2023/12/11 04:58:50;;;;;;;26.30;14.90;;;;;;;-147.86;100.00;46115.52;105804;1258;60826;-40
2023/12/11 05:01:17;;;;;;;27.60;14.70;;;;;;;-147.86;100.00;46116.70;105785;1254;60447;-42
2023/12/11 05:03:44;;;;;;;25.90;13.10;;;;;;;-147.86;100.00;46116.30;105786;1254;73815;-39
2023/12/11 05:06:11;;;;;;;24.20;13.70;;;;;;;-147.86;100.00;46115.52;105878;1257;65473;-41
2023/12/11 05:08:38;;;;;;;26.10;13.30;;;;;;;-147.86;100.00;46116.70;105894;1254;72606;-45
2023/12/11 05:11:05;;;;;;;23.60;13.70;;;;;;;-147.86;100.00;46113.56;105835;1254;61608;-43
2023/12/11 05:13:32;;;;;;;29.10;13.60;;;;;;;-147.86;100.00;46117.09;105832;1254;60458;-41
2023/12/11 05:16:00;;;;;;;27.00;13.40;;;;;;;-147.86;100.00;46115.52;105841;1255;73858;-41
2023/12/11 05:18:28;;;;;;;24.70;13.10;;;;;;;-147.86;100.00;46113.56;105893;1257;65503;-43
2023/12/11 05:20:55;;;;;;;25.80;12.30;;;;;;;-147.86;100.00;46115.13;105779;1257;72630;-45
2023/12/11 05:23:21;;;;;;;29.10;14.60;;;;;;;-147.86;100.00;46116.30;105773;1257;61006;-43
2023/12/11 05:25:48;;;;;;;21.00;12.40;;;;;;;-147.86;100.00;46115.91;105551;1253;60534;-46
2023/12/11 05:28:15;;;;;;;24.30;13.70;;;;;;;-147.86;100.00;46114.35;105588;1253;73957;-40
2023/12/11 05:30:42;;;;;;;24.90;12.90;;;;;;;-147.86;100.00;46116.30;105567;1257;65586;-43
2023/12/11 05:33:09;;;;;;;30.40;13.40;;;;;;;-147.86;100.00;46115.91;105740;1254;72676;-44
2023/12/11 05:35:36;;;;;;;24.30;13.40;;;;;;;-147.86;100.00;46116.70;105816;1253;61059;-45
2023/12/11 05:38:03;;;;;;;19.60;11.10;;;;;;;-147.86;100.00;46114.74;105806;1253;60527;-44
2023/12/11 05:40:30;;;;;;;20.40;12.00;;;;;;;-147.86;100.00;46116.31;105796;1257;73804;-44
2023/12/11 05:42:57;;;;;;;18.60;11.30;;;;;;;-147.86;100.00;46117.09;105785;1259;65358;-43
2023/12/11 05:45:24;;;;;;;21.60;11.70;;;;;;;-147.86;100.00;46114.74;105786;1254;72452;-42
2023/12/11 05:47:51;;;;;;;24.20;11.70;;;;;;;-147.86;100.00;46116.70;105789;1257;61037;-43
2023/12/11 05:50:18;;;;;;;22.70;11.80;;;;;;;-147.86;100.00;46115.91;105836;1253;60533;-39
2023/12/11 05:52:45;;;;;;;18.40;11.10;;;;;;;-147.86;100.00;46115.91;105891;1254;74179;-42
2023/12/11 05:55:12;;;;;;;19.20;11.50;;;;;;;-147.86;100.00;46116.30;105812;1254;65811;-42
2023/12/11 05:57:39;;;;;;;17.00;10.40;;;;;;;-147.86;100.00;46115.13;105844;1254;72610;-41
2023/12/11 06:00:07;;;;;;;18.80;11.40;;;;;;;-147.86;100.00;46115.13;105856;1257;60367;-45
2023/12/11 06:02:34;;;;;;;24.10;12.60;;;;;;;-147.86;100.00;46115.91;105806;1254;60540;-42
2023/12/11 06:05:01;;;;;;;20.50;11.80;;;;;;;-147.86;100.00;46117.88;105802;1257;73666;-43
2023/12/11 06:07:29;;;;;;;19.40;11.30;;;;;;;-147.86;100.00;46116.30;105864;1254;65471;-41
2023/12/11 06:09:56;;;;;;;21.40;12.10;;;;;;;-147.86;100.00;46116.70;105909;1253;72631;-38
2023/12/11 06:12:23;;;;;;;16.00;10.30;;;;;;;-147.86;100.00;46115.91;105892;1256;60363;-41
2023/12/11 06:14:50;;;;;;;22.00;11.40;;;;;;;-147.86;100.00;46115.13;105963;1252;60408;-43
2023/12/11 06:17:18;;;;;;;20.20;11.30;;;;;;;-147.86;100.00;46118.27;105873;1254;73778;-42
2023/12/11 06:19:45;;;;;;;19.20;10.90;;;;;;;-147.86;100.00;46117.49;105864;1256;65499;-41
2023/12/11 06:22:12;;;;;;;20.60;11.80;;;;;;;-147.86;100.00;46114.34;105900;1254;72577;-42
2023/12/11 06:24:39;;;;;;;19.20;11.40;;;;;;;-147.86;100.00;46115.91;105870;1256;60963;-46
2023/12/11 06:27:06;;;;;;;18.40;11.80;;;;;;;-147.86;100.00;46113.95;105910;1252;60434;-44
2023/12/11 06:29:34;;;;;;;21.00;10.90;;;;;;;-147.86;100.00;46117.87;105946;1252;73848;-43
2023/12/11 06:32:02;;;;;;;19.30;11.40;;;;;;;-147.86;100.00;46115.13;105922;1256;64022;-42
2023/12/11 06:34:30;;;;;;;18.50;10.70;;;;;;;-147.86;100.00;46117.09;105951;1254;72629;-42
2023/12/11 06:36:57;;;;;;;19.60;10.00;;;;;;;-147.86;100.00;46113.96;105963;1254;60537;-42
2023/12/11 06:39:26;;;;;;;18.30;10.20;;;;;;;-147.86;100.00;46116.70;106005;1254;60426;-41
2023/12/11 06:41:53;;;;;;;15.10;9.80;;;;;;;-147.86;100.00;46115.91;105921;1252;73871;-40
2023/12/11 06:44:21;;;;;;;15.40;9.40;;;;;;;-147.86;100.00;46116.30;105918;1256;65396;-44
2023/12/11 06:46:48;;;;;;;17.30;9.70;;;;;;;-147.86;100.00;46115.91;105917;1254;72630;-40
2023/12/11 06:49:15;;;;;;;20.70;10.70;;;;;;;-147.86;100.00;46117.48;105897;1256;60342;-44
2023/12/11 06:51:42;;;;;;;17.80;10.60;;;;;;;-147.86;100.00;46117.48;105941;1254;60535;-45
2023/12/11 06:54:10;;;;;;;16.50;10.30;;;;;;;-147.86;100.00;46113.96;105880;1254;73791;-44
2023/12/11 06:56:38;;;;;;;22.40;11.40;;;;;;;-147.86;100.00;46115.52;105921;1253;65425;-43
2023/12/11 06:59:05;;;;;;;19.70;10.90;;;;;;;-147.86;100.00;46116.70;105952;1254;72639;-43
2023/12/11 07:01:33;;;;;;;19.70;10.60;;;;;;;-147.86;100.00;46117.48;105896;1256;60389;-41
2023/12/11 07:04:01;;;;;;;20.10;11.60;;;;;;;-147.86;100.00;46117.48;105941;1257;61874;-45
2023/12/11 07:06:29;;;;;;;21.00;10.30;;;;;;;-147.86;100.00;46115.13;105940;1257;73693;-43
2023/12/11 07:08:56;;;;;;;16.60;9.90;;;;;;;-147.86;100.00;46117.09;105931;1254;64487;-43
2023/12/11 07:11:24;;;;;;;17.40;9.90;;;;;;;-147.86;100.00;46115.91;105926;1254;72415;-43
2023/12/11 07:13:52;;;;;;;19.60;9.90;;;;;;;-147.86;100.00;46115.91;105903;1256;60437;-43
2023/12/11 07:16:19;;;;;;;16.00;10.30;;;;;;;-147.86;100.00;46117.48;105944;1253;60456;-40
2023/12/11 07:18:46;;;;;;;18.50;10.70;;;;;;;-147.86;100.00;46115.52;105964;1254;73962;-43
2023/12/11 07:21:13;;;;;;;16.40;10.40;;;;;;;-147.86;100.00;46116.30;105940;1256;65430;-42
2023/12/11 07:23:40;;;;;;;19.60;10.30;;;;;;;-147.86;100.00;46117.88;105950;1254;72722;-45
2023/12/11 07:26:09;;;;;;;17.10;10.00;;;;;;;-147.86;100.00;46117.09;105970;1256;60517;-44
2023/12/11 07:28:36;;;;;;;17.80;10.70;;;;;;;-147.86;100.00;46116.70;105889;1252;60474;-42
2023/12/11 07:31:05;;;;;;;17.80;10.50;;;;;;;-147.86;100.00;46117.48;105905;1253;73908;-44
2023/12/11 07:33:32;;;;;;;21.10;10.80;;;;;;;-147.86;100.00;46117.87;105914;1257;63943;-40
2023/12/11 07:35:59;;;;;;;17.80;10.80;;;;;;;-147.86;100.00;46118.27;105942;1254;72528;-41
2023/12/11 07:38:26;;;;;;;18.50;10.80;;;;;;;-147.86;100.00;46115.91;105882;1256;60498;-42
2023/12/11 07:40:55;;;;;;;19.00;11.80;;;;;;;-147.86;100.00;46117.88;105931;1253;60431;-43
2023/12/11 07:43:21;;;;;;;24.40;12.20;;;;;;;-147.86;100.00;46118.66;105511;1254;307449;-45
2023/12/11 07:45:49;;;;;;;18.30;11.00;;;;;;;-147.86;100.00;46118.26;105907;1257;65380;-43
2023/12/11 07:49:40;;;;;;;20.80;12.00;;;;;;;-147.86;100.00;46139.03;102502;1292;600845;-44
2023/12/11 07:52:08;;;;;;;20.60;12.60;;;;;;;-147.86;100.00;46144.13;105273;1269;59494;-44
2023/12/11 07:54:34;;;;;;;22.40;12.40;;;;;;;-147.86;100.00;46137.86;105154;1270;60269;-45
2023/12/11 07:57:02;;;;;;;22.00;12.40;;;;;;;-147.86;100.00;46133.95;105151;1265;72225;-46
2023/12/11 07:59:29;;;;;;;18.40;12.20;;;;;;;-147.86;100.00;46130.02;105266;1269;65502;-44
2023/12/11 08:01:56;;;;;;;24.20;13.10;;;;;;;-147.86;100.00;46129.63;105646;1251;270149;-43
2023/12/11 08:04:23;;;;;;;19.90;11.70;;;;;;;-147.86;100.00;46131.20;105992;1255;60010;-42
2023/12/11 08:06:50;;;;;;;22.60;12.70;;;;;;;-147.86;100.00;46131.59;106010;1251;62165;-44
2023/12/11 08:09:18;;;;;;;21.40;11.00;;;;;;;-147.86;100.00;46131.20;109734;1250;73534;-41
2023/12/11 08:11:45;;;;;;;16.70;10.30;;;;;;;-147.86;100.00;46132.38;109764;1251;65250;-41
2023/12/11 08:14:12;;;;;;;16.00;10.00;;;;;;;-147.86;100.00;46130.02;109746;1251;72407;-43
2023/12/11 08:16:39;;;;;;;15.00;9.00;;;;;;;-147.86;100.00;46129.63;109719;1250;58746;-44
2023/12/11 08:19:06;;;;;;;14.80;9.20;;;;;;;-147.86;100.00;46130.80;109786;1251;60295;-41
2023/12/11 08:21:32;;;;;;;17.60;9.20;;;;;;;-147.86;100.00;46130.80;109775;1250;72705;-42
2023/12/11 08:23:59;;;;;;;15.30;9.10;;;;;;;-147.86;100.00;46131.20;109760;1251;65232;-43
2023/12/11 08:26:27;;;;;;;11.10;7.60;;;;;;;-147.86;100.00;46130.80;109769;1251;72807;-42
2023/12/11 08:28:54;;;;;;;10.70;7.10;;;;;;;-147.86;100.00;46131.20;109765;1251;58897;-40
2023/12/11 08:31:24;;;;;;;12.40;8.10;;;;;;;-147.86;100.00;46132.38;109798;1251;59990;-44
2023/12/11 08:33:51;;;;;;;14.10;8.20;;;;;;;-147.86;100.00;46131.98;109798;1252;72914;-41
2023/12/11 08:36:18;;;;;;;10.80;7.30;;;;;;;-147.86;100.00;46133.55;109767;1254;66237;-44
2023/12/11 08:38:44;;;;;;;13.40;8.10;;;;;;;-147.86;100.00;46133.94;109783;1251;71309;-41
2023/12/11 08:41:11;;;;;;;14.50;8.50;;;;;;;-147.86;100.00;46134.33;109772;1250;59345;-43
2023/12/11 08:43:38;;;;;;;12.30;6.40;;;;;;;-147.86;100.00;46134.33;109760;1251;58814;-42
2023/12/11 08:49:49;;;;;;;7.70;5.70;;;;;;;-147.86;100.00;46128.85;103625;1279;615425;-42
2023/12/11 08:52:16;;;;;;;8.50;5.00;;;;;;;-147.86;100.00;46135.90;105127;1269;59298;-44
2023/12/11 08:54:44;;;;;;;7.90;5.20;;;;;;;-147.86;100.00;46141.38;105174;1264;62148;-42
2023/12/11 08:57:11;;;;;;;8.30;5.20;;;;;;;-147.86;100.00;46136.69;105083;1268;72209;-44
2023/12/11 08:59:38;;;;;;;10.10;5.20;;;;;;;-147.86;100.00;46140.60;105265;1268;67337;-46
2023/12/11 09:02:06;;;;;;;5.10;4.60;;;;;;;-147.86;100.00;46140.60;104602;1264;401005;-46
2023/12/11 09:04:34;;;;;;;8.20;5.20;;;;;;;-147.86;100.00;46140.60;105294;1265;62191;-45
2023/12/11 09:07:01;;;;;;;5.70;4.70;;;;;;;-147.86;100.00;46140.60;105251;1267;60268;-43
2023/12/11 09:09:28;;;;;;;5.60;4.30;;;;;;;-147.86;100.00;46141.77;105259;1265;72075;-44
2023/12/11 09:11:56;;;;;;;7.60;4.80;;;;;;;-147.86;100.00;46140.60;105227;1264;65474;-43
2023/12/11 09:14:24;;;;;;;7.80;5.60;;;;;;;-147.86;100.00;46143.34;105231;1263;72691;-46
2023/12/11 09:16:51;;;;;;;6.20;5.60;;;;;;;-147.86;100.00;46143.34;105185;1265;62168;-44
2023/12/11 09:19:18;;;;;;;8.10;6.10;;;;;;;-147.86;100.00;46142.17;105639;1256;60271;-42
2023/12/11 09:21:54;;;;;;;8.20;6.00;;;;;;;-147.86;100.00;46145.30;105588;1256;73007;-43
2023/12/11 09:24:22;;;;;;;7.20;5.40;;;;;;;-147.86;100.00;46144.13;105691;1259;67194;-44
2023/12/11 09:26:50;;;;;;;7.20;4.60;;;;;;;-147.86;100.00;46144.52;105634;1257;74469;-45
2023/12/11 09:29:17;;;;;;;5.60;4.20;;;;;;;-147.86;100.00;46146.87;105639;1259;61919;-43
2023/12/11 09:31:44;;;;;;;4.40;3.30;;;;;;;-147.86;100.00;46145.30;105660;1259;59610;-43
2023/12/11 09:34:11;;;;;;;3.70;3.40;;;;;;;-147.86;100.00;46147.27;105724;1256;72876;-43
2023/12/11 09:36:39;;;;;;;3.20;2.90;;;;;;;-147.86;100.00;46146.88;105563;1260;67016;-45
2023/12/11 09:39:07;;;;;;;3.30;3.00;;;;;;;-147.86;100.00;46149.22;105667;1256;72544;-43
2023/12/11 09:41:34;;;;;;;2.50;2.30;;;;;;;-147.86;100.00;46151.57;105606;1260;62689;-44
2023/12/11 09:44:02;;;;;;;4.10;3.30;;;;;;;-147.86;100.00;46150.01;105603;1256;61812;-43
2023/12/11 09:46:37;;;;;;;3.70;3.40;;;;;;;-147.86;100.00;46152.36;105620;1257;74383;-45
2023/12/11 09:49:05;;;;;;;3.70;3.30;;;;;;;-147.86;100.00;46153.14;105727;1260;66434;-47
2023/12/11 09:51:32;;;;;;;3.30;3.10;;;;;;;-147.86;100.00;46155.49;105580;1257;73139;-43
2023/12/11 09:53:59;;;;;;;3.90;3.50;;;;;;;-147.86;100.00;46155.49;105629;1259;61106;-44
2023/12/11 09:56:26;;;;;;;3.70;3.40;;;;;;;-147.86;100.00;46155.49;105625;1256;62175;-46
2023/12/11 09:58:53;;;;;;;4.70;4.20;;;;;;;-147.86;100.00;46154.71;105557;1262;73015;-43
2023/12/11 10:01:20;;;;;;;6.90;4.10;;;;;;;-147.86;100.00;46157.45;105296;1263;65472;-42
2023/12/11 10:03:47;;;;;;;5.20;4.70;;;;;;;-147.86;100.00;46157.45;105636;1257;72781;-43
2023/12/11 10:06:15;;;;;;;4.30;3.40;;;;;;;-147.86;100.00;46156.28;105636;1260;63672;-44
2023/12/11 10:08:47;;;;;;;7.90;3.90;;;;;;;-147.86;100.00;46157.84;105601;1258;62207;-45
2023/12/11 10:11:14;;;;;;;3.50;3.30;;;;;;;-147.86;100.00;46159.02;105603;1259;73868;-44
2023/12/11 10:13:41;;;;;;;4.20;3.50;;;;;;;-147.86;100.00;46158.63;105599;1259;65493;-41
2023/12/11 10:16:28;;;;;;;3.70;3.40;;;;;;;-147.86;100.00;46157.84;105579;1257;73922;-43
2023/12/11 10:18:55;;;;;;;3.50;3.20;;;;;;;-147.86;100.00;46164.89;105603;1259;62473;-43
2023/12/11 10:21:24;;;;;;;2.70;2.50;;;;;;;-147.86;100.00;46163.33;105635;1258;61956;-46
2023/12/11 10:24:04;;;;;;;3.10;2.90;;;;;;;-147.86;100.00;46162.15;105610;1256;74142;-45
2023/12/11 10:26:33;;;;;;;3.10;2.90;;;;;;;-147.86;100.00;46164.90;105603;1259;65568;-46
2023/12/11 10:29:22;;;;;;;3.80;3.10;;;;;;;-147.86;100.00;46165.29;105596;1257;73721;-48
2023/12/11 10:31:50;;;;;;;3.30;3.00;;;;;;;-147.86;100.00;46166.86;105631;1259;60937;-42
2023/12/11 10:34:18;;;;;;;6.20;3.50;;;;;;;-147.86;100.00;46164.11;105612;1257;61633;-42
2023/12/11 10:36:52;;;;;;;3.80;3.40;;;;;;;-147.86;100.00;46164.89;105616;1257;72858;-47
2023/12/11 10:39:19;;;;;;;3.70;3.40;;;;;;;-147.86;100.00;46166.86;105627;1256;65342;-44
2023/12/11 10:41:47;;;;;;;5.20;3.80;;;;;;;-147.86;100.00;46168.81;105599;1257;74290;-47
2023/12/11 10:44:25;;;;;;;4.10;3.20;;;;;;;-147.86;100.00;46167.25;105705;1259;61906;-46
2023/12/11 10:47:12;;;;;;;2.60;2.50;;;;;;;-147.86;100.00;46173.52;105594;1257;60704;-44
2023/12/11 10:49:40;;;;;;;3.20;2.80;;;;;;;-147.86;100.00;46169.60;105606;1256;72012;-43
2023/12/11 10:52:07;;;;;;;3.90;3.40;;;;;;;-147.86;100.00;46171.16;105656;1259;67065;-46
2023/12/11 10:54:38;;;;;;;3.10;2.90;;;;;;;-147.86;100.00;46171.55;105650;1257;72622;-47
2023/12/11 10:57:07;;;;;;;3.20;2.90;;;;;;;-147.86;100.00;46173.52;105622;1259;61151;-44
2023/12/11 10:59:34;;;;;;;3.10;2.70;;;;;;;-147.86;100.00;46174.30;105601;1259;60300;-44